Time;durP1;ratioP1;P1;durP2;ratioP2;P2;SDS_P1;SDS_P2;PMS_P1;PMS_P2;Temp;Humidity;BMP_temperature;BMP_pressure;BME280_temperature;BME280_humidity;BME280_pressure;Samples;Min_cycle;Max_cycle;Signal;HPM_P1;HPM_P2
2022/04/21 00:00:13;;;;;;;35.60;23.25;;;;;;;3.86;82.20;100121.88;5008073;28;20034;-30
2022/04/21 00:02:39;;;;;;;20.17;12.80;;;;;;;3.96;81.54;100119.88;5006636;28;20113;-29
2022/04/21 00:05:09;;;;;;;20.70;12.23;;;;;;;4.14;81.67;100126.69;5006547;28;20128;-32
2022/04/21 00:07:36;;;;;;;15.70;11.13;;;;;;;4.12;80.94;100133.94;5006483;28;20116;-29
2022/04/21 00:10:06;;;;;;;17.33;10.65;;;;;;;3.84;81.30;100139.69;5006192;28;20030;-34
2022/04/21 00:12:33;;;;;;;15.35;10.43;;;;;;;3.85;81.47;100133.44;5007851;28;20040;-30
2022/04/21 00:14:59;;;;;;;20.20;11.38;;;;;;;3.57;80.53;100131.25;5007859;28;20502;-29
2022/04/21 00:17:25;;;;;;;20.05;11.88;;;;;;;3.60;83.52;100138.84;5006519;28;20063;-32
2022/04/21 00:19:50;;;;;;;18.88;11.25;;;;;;;3.77;83.75;100141.41;5043180;28;20038;-29
2022/04/21 00:25:00;;;;;;;19.88;12.13;;;;;;;3.70;84.69;100162.38;5011962;28;20072;-36
2022/04/21 00:27:26;;;;;;;19.33;12.32;;;;;;;3.59;85.14;100142.47;5012041;28;20541;-34
2022/04/21 00:29:52;;;;;;;19.45;12.23;;;;;;;3.71;83.50;100171.09;5010516;28;20034;-33
2022/04/21 00:32:17;;;;;;;23.77;12.93;;;;;;;3.65;83.75;100148.88;5011397;28;20032;-38
2022/04/21 00:34:42;;;;;;;20.60;13.27;;;;;;;3.69;83.51;100157.28;5011683;28;20497;-31
2022/04/21 00:37:08;;;;;;;19.52;11.88;;;;;;;3.47;84.33;100162.28;5011081;28;20593;-30
2022/04/21 00:39:34;;;;;;;19.52;10.93;;;;;;;3.11;86.40;100149.56;5010308;28;20026;-33
2022/04/21 00:42:02;;;;;;;18.38;11.05;;;;;;;3.27;86.63;100166.31;5011774;28;20084;-30
2022/04/21 00:44:29;;;;;;;20.95;12.75;;;;;;;3.09;87.88;100169.97;5010138;28;20040;-35
2022/04/21 00:47:00;;;;;;;27.25;19.90;;;;;;;3.06;87.93;100174.75;5010154;28;20498;-33
2022/04/21 00:49:27;;;;;;;21.42;14.55;;;;;;;2.97;86.80;100153.69;5011497;28;20560;-32
2022/04/21 00:51:54;;;;;;;21.47;14.03;;;;;;;3.07;86.30;100166.69;5010237;28;20038;-30
2022/04/21 00:54:20;;;;;;;21.90;14.35;;;;;;;3.13;84.39;100167.84;5009874;28;20029;-29
2022/04/21 00:56:46;;;;;;;24.10;15.38;;;;;;;2.99;85.53;100164.06;5010133;28;20049;-29
2022/04/21 00:59:12;;;;;;;25.10;16.08;;;;;;;2.94;86.37;100161.94;5009775;28;20505;-33
2022/04/21 01:04:24;;;;;;;19.30;13.52;;;;;;;2.90;87.31;100176.44;5011234;28;20036;-31
2022/04/21 01:06:54;;;;;;;21.55;14.43;;;;;;;3.22;86.51;100177.34;5011060;28;20445;-33
2022/04/21 01:09:20;;;;;;;18.35;13.32;;;;;;;3.23;85.26;100165.84;5009723;28;20034;-31
2022/04/21 01:11:47;;;;;;;21.00;13.95;;;;;;;3.16;85.49;100155.13;5011111;28;20045;-31
2022/04/21 01:14:14;;;;;;;16.48;11.55;;;;;;;3.27;86.02;100168.94;5009738;28;20064;-36
2022/04/21 01:16:39;;;;;;;15.75;11.10;;;;;;;3.12;85.52;100174.91;5009206;28;20501;-31
2022/04/21 01:19:05;;;;;;;15.85;11.07;;;;;;;3.10;83.49;100171.59;5010800;28;20026;-30
2022/04/21 01:21:31;;;;;;;17.13;11.20;;;;;;;2.98;84.13;100154.50;5011068;28;20108;-31
2022/04/21 01:23:56;;;;;;;15.02;10.75;;;;;;;3.00;86.04;100169.19;5009451;28;20033;-35
2022/04/21 01:26:25;;;;;;;16.45;10.77;;;;;;;2.96;85.55;100186.31;5010529;28;20479;-29
2022/04/21 01:28:52;;;;;;;19.02;11.90;;;;;;;2.93;86.28;100186.63;5009254;28;20129;-30
2022/04/21 01:31:22;;;;;;;17.95;12.38;;;;;;;2.92;84.73;100178.88;5008973;28;20052;-31
2022/04/21 01:33:47;;;;;;;17.45;10.88;;;;;;;2.86;84.28;100192.72;5009200;28;20232;-29
2022/04/21 01:36:13;;;;;;;19.38;10.95;;;;;;;2.90;85.07;100186.97;5010323;28;20129;-30
2022/04/21 01:41:22;;;;;;;19.13;11.85;;;;;;;2.71;86.88;100193.38;5010588;28;20472;-30
2022/04/21 01:43:48;;;;;;;16.98;11.10;;;;;;;2.76;86.73;100191.09;5010367;28;20755;-30
2022/04/21 01:46:13;;;;;;;16.35;11.07;;;;;;;2.77;84.83;100187.44;5010617;28;20116;-31
2022/04/21 01:48:38;;;;;;;17.40;11.30;;;;;;;2.81;85.00;100183.50;5010252;28;20033;-29
2022/04/21 01:51:04;;;;;;;17.33;11.02;;;;;;;2.69;86.20;100158.47;5010213;28;20032;-32
2022/04/21 01:53:29;;;;;;;14.85;10.43;;;;;;;2.46;86.74;100157.50;5010306;28;20625;-33
2022/04/21 01:55:55;;;;;;;16.40;11.50;;;;;;;2.48;86.28;100164.25;5010152;28;20399;-36
2022/04/21 01:58:21;;;;;;;19.52;12.45;;;;;;;2.53;86.92;100169.00;5008210;28;20030;-32
2022/04/21 02:00:46;;;;;;;16.25;10.63;;;;;;;2.42;85.55;100146.47;5010392;28;20433;-29
2022/04/21 02:03:12;;;;;;;18.65;12.23;;;;;;;2.36;85.83;100169.00;5010390;28;20061;-30
2022/04/21 02:05:37;;;;;;;18.95;11.57;;;;;;;2.23;86.05;100145.00;5010242;28;20609;-30
2022/04/21 02:08:03;;;;;;;16.35;10.43;;;;;;;2.31;86.40;100158.16;5010160;28;20030;-30
2022/04/21 02:10:30;;;;;;;15.77;10.00;;;;;;;2.38;85.83;100151.25;5008286;28;20045;-30
2022/04/21 02:12:57;;;;;;;17.70;10.35;;;;;;;2.29;86.63;100149.59;5008271;28;20048;-30
2022/04/21 02:15:23;;;;;;;17.75;12.30;;;;;;;2.31;87.45;100160.78;5010112;28;20029;-32
2022/04/21 02:17:49;;;;;;;20.13;12.50;;;;;;;2.36;87.59;100150.56;5008475;28;20411;-33
2022/04/21 02:20:16;;;;;;;19.27;12.07;;;;;;;2.42;87.08;100154.38;5008249;28;20469;-29
2022/04/21 02:22:42;;;;;;;21.48;13.32;;;;;;;2.44;86.64;100156.84;5009565;28;20121;-32
2022/04/21 02:25:09;;;;;;;21.77;13.93;;;;;;;2.48;86.81;100129.22;5008111;28;20088;-31
2022/04/21 02:27:40;;;;;;;22.30;14.05;;;;;;;2.52;86.49;100151.59;5008348;28;20099;-31
2022/04/21 02:30:07;;;;;;;21.13;14.20;;;;;;;2.52;85.98;100159.50;5008201;28;20091;-32
2022/04/21 02:32:33;;;;;;;19.42;13.77;;;;;;;2.13;87.10;100144.31;5009387;28;20026;-30
2022/04/21 02:34:59;;;;;;;16.88;10.50;;;;;;;1.63;88.47;100150.41;5007791;28;20038;-32
2022/04/21 02:37:25;;;;;;;19.23;13.95;;;;;;;1.54;88.49;100162.72;5008074;28;20490;-33
2022/04/21 02:39:51;;;;;;;21.23;13.50;;;;;;;1.99;87.75;100157.09;5007643;28;20030;-32
2022/04/21 02:42:19;;;;;;;34.85;17.85;;;;;;;1.82;87.12;100147.53;5007660;28;20038;-35
2022/04/21 02:44:45;;;;;;;19.98;12.55;;;;;;;2.06;87.01;100135.41;5009350;28;20034;-29
2022/04/21 02:47:11;;;;;;;18.98;13.25;;;;;;;2.15;86.65;100145.78;5009402;28;20022;-29
2022/04/21 02:49:37;;;;;;;20.25;13.75;;;;;;;2.21;87.75;100139.06;5007982;28;20121;-34
2022/04/21 02:52:07;;;;;;;20.75;14.48;;;;;;;2.35;86.71;100134.94;5007786;28;20031;-32
2022/04/21 02:57:20;;;;;;;22.15;14.93;;;;;;;2.22;85.70;100135.44;5008185;28;20143;-31
2022/04/21 02:59:47;;;;;;;19.98;14.93;;;;;;;2.12;85.82;100143.47;5007648;28;20041;-31
2022/04/21 03:02:12;;;;;;;23.40;15.50;;;;;;;2.11;85.46;100148.91;5007635;28;20041;-31
2022/04/21 03:04:38;;;;;;;23.38;16.00;;;;;;;1.96;86.92;100154.81;5009099;28;20026;-33
2022/04/21 03:07:03;;;;;;;23.27;14.95;;;;;;;1.97;86.65;100153.00;5007316;28;20045;-30
2022/04/21 03:09:29;;;;;;;28.40;15.77;;;;;;;2.22;86.91;100136.25;5009079;28;20497;-30
2022/04/21 03:12:01;;;;;;;24.40;16.13;;;;;;;1.81;87.99;100133.53;5007474;28;20512;-33
2022/04/21 03:14:26;;;;;;;23.15;13.95;;;;;;;1.48;89.78;100147.56;5008701;28;20073;-30
2022/04/21 03:16:51;;;;;;;19.58;13.35;;;;;;;1.41;90.10;100142.13;5008738;28;20061;-30
2022/04/21 03:19:17;;;;;;;21.92;14.73;;;;;;;1.37;89.33;100136.34;5008688;28;20030;-30
2022/04/21 03:24:29;;;;;;;25.08;16.27;;;;;;;1.60;89.95;100152.38;5008604;28;20107;-29
2022/04/21 03:26:55;;;;;;;27.30;17.75;;;;;;;1.65;87.74;100137.94;5007001;28;20552;-31
2022/04/21 03:29:20;;;;;;;30.27;20.05;;;;;;;2.15;87.23;100140.53;5007078;28;20046;-33
2022/04/21 03:31:48;;;;;;;32.72;21.50;;;;;;;2.12;86.95;100145.28;5007257;28;20022;-30
2022/04/21 03:34:16;;;;;;;34.17;23.58;;;;;;;2.03;86.99;100152.34;5006803;28;20113;-31
2022/04/21 03:36:48;;;;;;;33.63;21.80;;;;;;;1.68;88.75;100137.63;5006502;28;20497;-31
2022/04/21 03:39:20;;;;;;;32.90;23.05;;;;;;;1.91;89.25;100153.63;5008386;28;20026;-30
2022/04/21 03:41:45;;;;;;;35.05;21.40;;;;;;;2.06;87.26;100153.81;5007017;28;20474;-32
2022/04/21 03:44:11;;;;;;;35.30;21.85;;;;;;;2.08;86.75;100133.44;5006880;28;20059;-30
2022/04/21 03:46:38;;;;;;;33.90;20.83;;;;;;;2.25;86.74;100156.16;5007864;28;20877;-32
2022/04/21 03:49:07;;;;;;;32.25;17.33;;;;;;;2.18;86.44;100136.75;5006799;28;20041;-31
2022/04/21 03:51:34;;;;;;;21.95;13.02;;;;;;;2.00;84.92;100142.97;5006874;28;20494;-30
2022/04/21 03:53:59;;;;;;;28.38;15.85;;;;;;;1.91;85.26;100159.72;5005892;28;20517;-29
2022/04/21 03:56:27;;;;;;;21.75;12.82;;;;;;;1.73;86.04;100145.84;5007955;28;20026;-30
2022/04/21 03:58:53;;;;;;;27.60;14.43;;;;;;;1.80;87.10;100146.88;5006575;28;20512;-33
2022/04/21 04:01:19;;;;;;;29.80;14.75;;;;;;;1.88;88.60;100159.19;5006438;28;20260;-30
2022/04/21 04:03:45;;;;;;;29.88;14.30;;;;;;;1.88;88.50;100160.03;5008251;28;20151;-30
2022/04/21 04:11:39;;;;;;;32.53;21.13;;;;;;;2.29;85.51;100127.69;5008140;28;20075;-29
2022/04/21 04:14:05;;;;;;;27.15;18.10;;;;;;;2.37;87.64;100154.88;5006656;28;20042;-30
2022/04/21 04:16:33;;;;;;;20.02;12.18;;;;;;;2.34;86.51;100144.66;5006539;28;20065;-31
2022/04/21 04:19:00;;;;;;;17.27;11.18;;;;;;;2.51;86.34;100150.75;5006579;28;20041;-33
2022/04/21 04:21:25;;;;;;;17.35;10.57;;;;;;;2.47;85.36;100151.25;5006453;28;20425;-32
2022/04/21 04:23:51;;;;;;;16.13;9.90;;;;;;;2.61;86.07;100158.47;5006508;28;20030;-31
2022/04/21 04:26:16;;;;;;;17.30;10.70;;;;;;;2.72;85.74;100160.81;5007542;28;20129;-31
2022/04/21 04:28:42;;;;;;;19.65;12.27;;;;;;;2.58;87.04;100158.84;5008332;28;20108;-30
2022/04/21 04:31:08;;;;;;;39.83;25.05;;;;;;;2.89;85.34;100163.41;5007767;28;20026;-30
2022/04/21 04:33:34;;;;;;;42.10;26.30;;;;;;;2.85;85.11;100154.22;5007969;28;20026;-30
2022/04/21 04:36:00;;;;;;;49.88;32.80;;;;;;;2.73;84.88;100151.91;5006207;28;20057;-29
2022/04/21 04:38:26;;;;;;;46.20;29.42;;;;;;;3.06;85.52;100158.94;5007275;28;20073;-35
2022/04/21 04:40:51;;;;;;;22.05;15.32;;;;;;;3.20;84.82;100161.69;5007484;28;20038;-30
2022/04/21 04:43:17;;;;;;;20.60;14.65;;;;;;;3.55;84.20;100154.34;5008117;28;20111;-30
2022/04/21 04:48:26;;;;;;;15.30;10.07;;;;;;;3.68;83.44;100158.25;5007458;28;20033;-29
2022/04/21 04:50:51;;;;;;;24.75;15.30;;;;;;;3.38;83.24;100152.78;5007998;28;20038;-30
2022/04/21 04:53:17;;;;;;;25.90;17.33;;;;;;;3.16;84.67;100164.84;5007313;28;20037;-29
2022/04/21 04:55:42;;;;;;;23.27;15.20;;;;;;;3.26;85.46;100156.75;5007808;28;20054;-31
2022/04/21 04:58:08;;;;;;;20.88;14.25;;;;;;;3.56;85.54;100161.28;5007651;28;20053;-31
2022/04/21 05:00:33;;;;;;;22.30;14.73;;;;;;;3.63;84.46;100156.94;4989722;28;20406;-29
2022/04/21 05:02:59;;;;;;;23.35;14.88;;;;;;;3.84;83.24;100142.34;5006094;28;20181;-29
2022/04/21 05:05:24;;;;;;;14.35;9.80;;;;;;;4.14;82.29;100148.59;5009048;28;20133;-33
2022/04/21 05:07:50;;;;;;;15.55;10.48;;;;;;;4.57;80.61;100164.00;5010739;28;20034;-30
2022/04/21 05:10:18;;;;;;;16.25;10.43;;;;;;;4.38;80.50;100144.97;5009879;28;20038;-30
2022/04/21 05:12:44;;;;;;;;;;;;;;;4.77;79.95;100167.78;5011751;28;20028;-30
2022/04/21 05:15:09;;;;;;;15.35;10.00;;;;;;;4.69;79.55;100144.06;5011055;28;19929;-28
2022/04/21 05:17:35;;;;;;;18.40;10.55;;;;;;;4.77;79.98;100154.56;5011231;28;20048;-31
2022/04/21 05:20:02;;;;;;;16.23;10.20;;;;;;;5.03;80.66;100161.28;5009506;28;20508;-32
2022/04/21 05:22:37;;;;;;;14.77;10.15;;;;;;;5.26;79.79;100147.19;5009125;28;20026;-29
2022/04/21 05:25:07;;;;;;;15.73;10.32;;;;;;;5.38;80.17;100157.09;5009627;28;20515;-30
2022/04/21 05:27:33;;;;;;;15.88;10.88;;;;;;;5.44;80.59;100144.97;5011273;28;20034;-35
2022/04/21 05:32:48;;;;;;;15.77;10.25;;;;;;;5.69;78.28;100157.91;5011057;28;20076;-34
2022/04/21 05:35:14;;;;;;;13.05;9.77;;;;;;;5.75;77.66;100149.22;5009285;28;20050;-31
2022/04/21 05:37:39;;;;;;;16.23;10.70;;;;;;;6.07;78.34;100166.53;5042522;28;20026;-32
2022/04/21 05:40:05;;;;;;;13.23;9.35;;;;;;;6.06;77.53;100164.06;5009182;28;20033;-30
2022/04/21 05:42:35;;;;;;;15.07;10.40;;;;;;;6.16;78.82;100175.19;5041871;28;20483;-33
2022/04/21 05:45:02;;;;;;;13.88;8.95;;;;;;;6.21;76.76;100183.38;5008994;28;20026;-32
2022/04/21 05:47:28;;;;;;;13.32;9.20;;;;;;;6.10;77.26;100173.28;5041980;28;20049;-30
2022/04/21 05:49:54;;;;;;;13.80;9.88;;;;;;;6.29;76.91;100191.19;5042244;28;20033;-31
2022/04/21 05:52:22;;;;;;;16.15;11.13;;;;;;;6.23;77.21;100181.34;5010345;28;20065;-31
2022/04/21 05:54:48;;;;;;;16.83;10.90;;;;;;;6.15;78.41;100189.41;5009042;28;20469;-31
2022/04/21 05:57:13;;;;;;;14.77;10.38;;;;;;;6.38;76.98;100195.38;5010141;28;20116;-35
2022/04/21 05:59:39;;;;;;;15.10;10.45;;;;;;;6.32;76.03;100188.19;5010437;28;20402;-31
2022/04/21 06:02:06;;;;;;;15.35;10.75;;;;;;;6.42;75.33;100194.00;5009863;28;20079;-37
2022/04/21 06:04:32;;;;;;;15.32;10.57;;;;;;;6.52;74.19;100184.91;5010229;28;20026;-31
2022/04/21 06:06:58;;;;;;;15.75;10.02;;;;;;;6.56;73.44;100172.91;5010023;28;20116;-30
2022/04/21 06:09:24;;;;;;;14.23;9.95;;;;;;;6.42;75.79;100172.81;5008737;28;20149;-30
2022/04/21 06:11:49;;;;;;;12.73;9.10;;;;;;;6.54;75.04;100183.72;5009922;28;20116;-35
2022/04/21 06:14:15;;;;;;;14.80;10.00;;;;;;;6.71;75.21;100197.53;5041579;28;20486;-30
2022/04/21 06:16:41;;;;;;;12.43;8.80;;;;;;;6.80;73.74;100188.44;5008755;28;20502;-31
2022/04/21 06:19:06;;;;;;;14.13;9.75;;;;;;;6.92;73.20;100179.97;5009989;28;20026;-31
2022/04/21 06:21:32;;;;;;;12.68;9.18;;;;;;;7.00;72.28;100172.69;5041694;28;20095;-30
2022/04/21 06:23:58;;;;;;;15.05;10.63;;;;;;;7.16;71.87;100195.44;5009926;28;20065;-30
2022/04/21 06:26:25;;;;;;;12.68;8.70;;;;;;;7.05;72.59;100158.88;5009519;28;20029;-30
2022/04/21 06:28:54;;;;;;;14.27;9.23;;;;;;;7.36;72.60;100184.16;5009019;28;20033;-29
2022/04/21 06:31:19;;;;;;;12.65;8.48;;;;;;;6.97;73.81;100151.06;5041215;28;20033;-31
2022/04/21 06:33:45;;;;;;;14.27;8.75;;;;;;;9.03;77.73;100159.69;5009462;28;20033;-31
2022/04/21 06:36:10;;;;;;;12.10;8.40;;;;;;;9.40;69.17;100172.53;5009269;28;20050;-31
2022/04/21 06:38:36;;;;;;;13.50;9.05;;;;;;;8.69;71.30;100167.88;5009185;28;20182;-30
2022/04/21 06:41:02;;;;;;;11.07;8.07;;;;;;;8.54;69.65;100171.56;5009153;28;20029;-29
2022/04/21 06:48:57;;;;;;;12.63;8.98;;;;;;;8.21;69.36;100166.97;5009504;28;20580;-34
2022/04/21 06:51:22;;;;;;;12.82;9.13;;;;;;;8.31;68.56;100163.09;5009404;28;20505;-30
2022/04/21 06:53:48;;;;;;;14.35;9.65;;;;;;;8.78;70.04;100182.59;5009373;28;20116;-30
2022/04/21 06:56:14;;;;;;;13.27;9.43;;;;;;;8.74;68.31;100179.53;5008882;28;20045;-34
2022/04/21 06:58:43;;;;;;;13.65;9.48;;;;;;;8.83;67.87;100183.63;5009396;28;20032;-30
2022/04/21 07:01:08;;;;;;;13.68;10.05;;;;;;;8.92;68.52;100164.81;5007610;28;20044;-32
2022/04/21 07:03:35;;;;;;;13.63;9.85;;;;;;;8.88;68.56;100168.91;5009228;28;20474;-29
2022/04/21 07:06:01;;;;;;;13.90;10.60;;;;;;;8.99;69.77;100176.25;5008993;28;20103;-31
2022/04/21 07:08:26;;;;;;;16.75;11.48;;;;;;;8.90;67.90;100157.03;5008753;28;20029;-30
2022/04/21 07:10:52;;;;;;;16.02;11.38;;;;;;;9.05;69.49;100159.47;5008712;28;20037;-31
2022/04/21 07:13:17;;;;;;;14.90;10.85;;;;;;;9.32;67.76;100154.94;5008931;28;20433;-30
2022/04/21 07:15:43;;;;;;;16.38;12.00;;;;;;;9.39;66.54;100142.41;5008888;28;20041;-35
2022/04/21 07:18:10;;;;;;;14.82;11.48;;;;;;;9.50;65.85;100178.25;5008641;28;20033;-31
2022/04/21 07:20:36;;;;;;;15.15;10.77;;;;;;;9.23;66.68;100185.44;5007109;28;20036;-30
2022/04/21 07:23:02;;;;;;;14.50;11.32;;;;;;;9.28;67.51;100179.50;5008563;28;20037;-33
2022/04/21 07:25:28;;;;;;;15.65;10.20;;;;;;;8.98;65.77;100170.13;5006833;28;20048;-32
2022/04/21 07:27:54;;;;;;;14.73;10.82;;;;;;;9.06;68.37;100174.41;5006731;28;20042;-32
2022/04/21 07:30:20;;;;;;;14.85;10.82;;;;;;;9.41;68.36;100176.81;5008298;28;20029;-31
2022/04/21 07:32:46;;;;;;;21.45;16.90;;;;;;;9.58;66.36;100178.00;5006874;28;20033;-29
2022/04/21 07:35:11;;;;;;;14.27;10.60;;;;;;;9.12;67.24;100165.59;5006745;28;20054;-30
2022/04/21 07:37:37;;;;;;;16.98;11.50;;;;;;;9.66;66.46;100171.63;5006894;28;20057;-39
2022/04/21 07:40:06;;;;;;;15.00;10.23;;;;;;;9.99;67.57;100176.84;5008222;28;20033;-30
2022/04/21 07:42:32;;;;;;;17.80;11.07;;;;;;;9.85;65.16;100173.41;5006764;28;20129;-34
2022/04/21 07:45:04;;;;;;;14.07;10.55;;;;;;;10.02;65.98;100171.06;5007000;28;20502;-32
2022/04/21 07:47:30;;;;;;;14.02;10.10;;;;;;;9.92;65.51;100183.22;5008367;28;20097;-30
2022/04/21 07:49:56;;;;;;;14.02;9.88;;;;;;;9.97;65.72;100178.88;5008139;28;20036;-30
2022/04/21 07:55:14;;;;;;;13.50;9.65;;;;;;;9.99;63.44;100166.16;5008356;28;20057;-30
2022/04/21 07:57:40;;;;;;;12.90;10.18;;;;;;;10.29;63.77;100172.78;5039714;28;20034;-34
2022/04/21 08:00:07;;;;;;;12.23;9.13;;;;;;;10.26;64.04;100184.69;5006557;28;20030;-32
2022/04/21 08:02:32;;;;;;;11.38;8.65;;;;;;;10.17;63.56;100184.09;5039262;28;20032;-31
2022/04/21 08:04:58;;;;;;;13.45;8.77;;;;;;;10.19;63.10;100181.22;5007705;28;20025;-30
2022/04/21 08:07:23;;;;;;;12.13;8.43;;;;;;;10.25;62.51;100170.53;5008269;28;20034;-33
2022/04/21 08:09:49;;;;;;;12.10;8.43;;;;;;;10.58;62.54;100187.38;5007845;28;20391;-32
2022/04/21 08:12:14;;;;;;;11.70;8.20;;;;;;;10.64;60.58;100173.19;5039753;28;20036;-30
2022/04/21 08:14:40;;;;;;;10.43;7.75;;;;;;;10.99;60.76;100186.88;5007762;28;20094;-30
2022/04/21 08:17:06;;;;;;;12.82;8.82;;;;;;;11.15;61.98;100168.66;5008013;28;20026;-33
2022/04/21 08:19:32;;;;;;;11.68;7.63;;;;;;;11.34;56.90;100166.81;5007671;28;20029;-30
2022/04/21 08:21:58;;;;;;;12.25;9.68;;;;;;;11.41;58.78;100191.59;5039568;28;20041;-32
2022/04/21 08:32:43;;;;;;;10.75;7.63;;;;;;;11.27;58.43;100177.56;5007596;28;20041;-30
2022/04/21 08:35:13;;;;;;;12.90;9.25;;;;;;;11.80;57.72;100181.53;5039058;28;20065;-31
2022/04/21 08:37:44;;;;;;;9.88;7.30;;;;;;;12.04;54.45;100177.94;5007523;28;20069;-31
2022/04/21 08:40:10;;;;;;;10.40;7.10;;;;;;;12.55;55.00;100199.06;5041617;28;20038;-30
2022/04/21 08:42:41;;;;;;;10.15;7.35;;;;;;;11.97;53.81;100192.44;5011167;28;20034;-31
2022/04/21 08:45:08;;;;;;;10.43;7.43;;;;;;;12.54;55.19;100210.81;5043283;28;20033;-34
2022/04/21 08:47:35;;;;;;;9.52;6.95;;;;;;;12.68;55.27;100198.84;5011509;28;20030;-33
2022/04/21 08:50:11;;;;;;;9.27;7.10;;;;;;;12.51;52.11;100176.50;5043098;28;20037;-37
2022/04/21 08:52:38;;;;;;;9.07;6.80;;;;;;;12.83;54.50;100201.94;5043037;28;20434;-31
2022/04/21 08:55:03;;;;;;;11.18;8.15;;;;;;;12.98;54.09;100198.81;5042760;28;20111;-35
2022/04/21 08:57:30;;;;;;;9.05;6.68;;;;;;;12.81;51.92;100176.41;5011216;28;20033;-30
2022/04/21 08:59:57;;;;;;;10.02;8.05;;;;;;;12.99;53.39;100197.75;5043031;28;20482;-31
2022/04/21 09:02:35;;;;;;;10.90;7.38;;;;;;;13.02;51.24;100194.63;5009601;28;20506;-33
2022/04/21 09:05:02;;;;;;;11.40;7.20;;;;;;;13.15;53.75;100185.53;5009731;28;20041;-33
2022/04/21 09:07:28;;;;;;;9.18;6.60;;;;;;;13.08;49.50;100190.19;5042426;28;20041;-30
2022/04/21 09:10:05;;;;;;;9.20;6.85;;;;;;;13.30;50.67;100193.16;5011148;28;20040;-32
2022/04/21 09:12:32;;;;;;;8.82;6.30;;;;;;;13.57;54.09;100196.13;5042500;28;20033;-32
2022/04/21 09:14:57;;;;;;;9.02;6.75;;;;;;;13.56;49.30;100183.78;5042700;28;20034;-30
2022/04/21 09:17:23;;;;;;;8.18;6.22;;;;;;;13.95;48.59;100197.44;5010790;28;20026;-30
2022/04/21 09:20:00;;;;;;;9.93;6.30;;;;;;;14.24;49.35;100176.84;5009150;28;20037;-36
2022/04/21 09:22:30;;;;;;;9.32;6.80;;;;;;;14.34;50.72;100178.06;5009132;28;20028;-30
2022/04/21 09:24:58;;;;;;;8.15;6.53;;;;;;;14.26;48.14;100177.41;5042710;28;20034;-34
2022/04/21 09:27:23;;;;;;;9.73;6.50;;;;;;;14.50;47.97;100193.38;5042376;28;20076;-31
2022/04/21 09:29:50;;;;;;;12.02;8.20;;;;;;;14.81;52.01;100188.56;5010622;28;20042;-33
2022/04/21 09:32:17;;;;;;;8.70;6.93;;;;;;;14.89;49.30;100187.34;5042229;28;20129;-33
2022/04/21 09:34:50;;;;;;;8.88;6.57;;;;;;;14.87;47.17;100171.47;5010482;28;20419;-30
2022/04/21 09:37:21;;;;;;;11.68;7.13;;;;;;;14.88;51.67;100166.94;5010577;28;20072;-33
2022/04/21 09:39:51;;;;;;;8.95;6.55;;;;;;;14.58;46.75;100178.78;5010823;28;20052;-31
2022/04/21 09:42:27;;;;;;;8.63;6.55;;;;;;;14.73;48.82;100178.22;5042372;28;20096;-36
2022/04/21 09:47:51;;;;;;;8.18;6.40;;;;;;;14.89;50.63;100168.53;5010626;28;20461;-30
2022/04/21 09:50:16;;;;;;;8.32;6.22;;;;;;;14.94;49.63;100157.91;5009593;28;20042;-34
2022/04/21 09:52:53;;;;;;;9.40;6.53;;;;;;;14.82;50.37;100155.28;5009612;28;20026;-32
2022/04/21 09:55:32;;;;;;;8.57;6.38;;;;;;;15.14;46.93;100158.19;5009950;28;20037;-30
2022/04/21 09:58:04;;;;;;;8.80;6.40;;;;;;;15.13;50.25;100143.13;5010497;28;20037;-30
2022/04/21 10:00:32;;;;;;;8.32;6.25;;;;;;;15.20;49.13;100141.09;5008468;28;20410;-31
2022/04/21 10:02:59;;;;;;;9.77;6.75;;;;;;;15.23;50.90;100145.94;5041638;28;20120;-30
2022/04/21 10:05:25;;;;;;;8.65;5.65;;;;;;;15.53;47.39;100139.38;5041804;28;20112;-32
2022/04/21 10:07:53;;;;;;;10.15;6.50;;;;;;;15.51;47.58;100130.75;5041447;28;20034;-33
2022/04/21 10:10:18;;;;;;;9.53;5.80;;;;;;;15.90;48.40;100138.75;5041644;28;20069;-31
2022/04/21 10:12:44;;;;;;;9.23;6.10;;;;;;;15.97;46.37;100142.03;5009930;28;20099;-29
2022/04/21 10:15:10;;;;;;;8.48;6.03;;;;;;;16.19;44.99;100135.81;5041736;28;20120;-30
2022/04/21 10:17:36;;;;;;;8.68;6.63;;;;;;;16.07;46.77;100126.00;5008469;28;20040;-31
2022/04/21 10:20:03;;;;;;;10.63;7.38;;;;;;;15.94;47.93;100121.06;5041466;28;20049;-33
2022/04/21 10:22:33;;;;;;;8.98;6.32;;;;;;;16.30;47.75;100126.75;5009334;28;20030;-31
2022/04/21 10:25:00;;;;;;;13.55;8.40;;;;;;;16.39;47.62;100138.69;5041499;28;20391;-31
2022/04/21 10:27:46;;;;;;;14.65;12.75;;;;;;;16.78;44.75;100118.81;5041415;28;20053;-33
2022/04/21 10:30:22;;;;;;;9.25;7.13;;;;;;;16.67;45.75;100117.91;5009581;28;20038;-33
2022/04/21 10:32:59;;;;;;;10.23;7.93;;;;;;;16.16;46.38;100136.31;5040954;28;20034;-30
2022/04/21 10:35:24;;;;;;;9.77;7.15;;;;;;;16.24;47.61;100130.47;5009638;28;20725;-32
2022/04/21 10:38:14;;;;;;;71.13;54.78;;;;;;;16.36;45.01;100138.41;5009168;28;20061;-33
2022/04/21 10:41:10;;;;;;;95.38;85.18;;;;;;;16.37;45.20;100135.47;5009079;28;20029;-30
2022/04/21 10:43:48;;;;;;;9.93;6.93;;;;;;;16.96;46.27;100131.91;5009429;28;20037;-31
2022/04/21 10:46:19;;;;;;;10.70;7.38;;;;;;;16.68;47.56;100125.75;5009208;28;20076;-34
2022/04/21 10:48:45;;;;;;;10.18;8.10;;;;;;;16.72;45.42;100126.06;4991765;28;20030;-31
2022/04/21 10:51:11;;;;;;;12.10;7.63;;;;;;;17.13;43.99;100128.25;5009079;28;20444;-30
2022/04/21 10:59:49;;;;;;;11.70;7.78;;;;;;;17.52;46.52;100112.50;5009224;28;20040;-31
2022/04/21 11:02:15;;;;;;;13.63;8.93;;;;;;;17.87;47.46;100121.81;5008795;28;20045;-31
2022/04/21 11:04:40;;;;;;;10.45;7.38;;;;;;;17.78;47.89;100126.09;5008571;28;20030;-37
2022/04/21 11:07:12;;;;;;;10.50;7.15;;;;;;;17.50;46.51;100101.19;5009059;28;20617;-32
2022/04/21 11:09:50;;;;;;;9.60;7.72;;;;;;;17.86;44.49;100117.53;5040740;28;20033;-37
2022/04/21 11:12:37;;;;;;;10.50;6.95;;;;;;;17.93;45.67;100123.47;5040319;28;20116;-35
2022/04/21 11:15:29;;;;;;;10.48;6.93;;;;;;;17.88;43.47;100118.06;5008738;28;20088;-32
2022/04/21 11:17:59;;;;;;;8.65;7.25;;;;;;;18.18;44.43;100124.59;5004088;28;20052;-31
2022/04/21 11:20:25;;;;;;;9.95;6.38;;;;;;;17.72;43.99;100111.78;5006936;28;20034;-35
2022/04/21 11:22:51;;;;;;;8.00;5.55;;;;;;;17.49;43.47;100096.88;5008610;28;20038;-30
2022/04/21 11:25:16;;;;;;;8.15;5.88;;;;;;;17.51;44.81;100100.13;5008707;28;20022;-33
2022/04/21 11:27:44;;;;;;;8.10;6.82;;;;;;;17.31;47.27;100111.63;5008520;28;20041;-31
2022/04/21 11:30:12;;;;;;;7.35;5.40;;;;;;;17.39;42.02;100118.41;5008611;28;20121;-31
2022/04/21 11:32:38;;;;;;;;;;;;;;;17.99;44.61;100116.19;5040337;28;20041;-32
2022/04/21 11:35:05;;;;;;;8.43;5.03;;;;;;;16.89;44.96;100114.34;5008241;28;20633;-31
2022/04/21 11:37:50;;;;;;;6.63;4.30;;;;;;;17.41;39.80;100108.16;5039939;28;20098;-30
2022/04/21 11:40:19;;;;;;;6.72;5.05;;;;;;;17.30;42.40;100091.13;5023237;28;20046;-34
2022/04/21 11:42:47;;;;;;;8.70;6.18;;;;;;;17.29;43.28;100092.22;5008319;28;20039;-31
2022/04/21 11:45:17;;;;;;;7.88;5.93;;;;;;;17.57;43.59;100098.22;5008211;28;20046;-31
2022/04/21 11:47:43;;;;;;;10.27;5.88;;;;;;;17.53;45.24;100070.19;5039933;28;20511;-32
2022/04/21 11:50:09;;;;;;;7.28;4.95;;;;;;;17.15;45.33;100062.22;5008368;28;20033;-30
2022/04/21 11:52:35;;;;;;;6.68;4.35;;;;;;;17.18;38.38;100068.97;5039779;28;20562;-34
2022/04/21 11:55:04;;;;;;;6.30;3.83;;;;;;;16.81;40.14;100059.88;5039853;28;20038;-33
2022/04/21 11:57:43;;;;;;;6.15;4.43;;;;;;;16.97;41.50;100068.06;5008018;28;20029;-30
2022/04/21 12:00:09;;;;;;;6.18;4.57;;;;;;;17.67;41.84;100069.44;5039525;28;20411;-30
2022/04/21 12:08:06;;;;;;;5.30;3.60;;;;;;;17.59;37.26;100048.38;5008219;28;20058;-34
2022/04/21 12:10:32;;;;;;;6.25;3.92;;;;;;;18.14;39.72;100058.72;5039306;28;20418;-31
2022/04/21 12:12:58;;;;;;;5.93;4.40;;;;;;;19.07;39.52;100039.44;5039425;28;20040;-32
2022/04/21 12:15:31;;;;;;;5.85;3.13;;;;;;;19.59;34.05;100034.59;5007698;28;20108;-31